Shullsberg, Wisconsin
Current Conditions -  °F | °C
As of 3:55 PM on Thursday 27 Nov 2014 (Local Time) from KPVB Reporting Station
Clear Clear  
Wind Chill: 16°   Ceiling: Unl
Heat Index: 16°   Visibility: 10mi
Dew Point:   Wind: 0mph
Humidity: 57%   Direction: NA
Pressure: 30.4"   Gusts: NA
Location:  42.5751°N, 90.2217°W
Report Text: KPVB 272155Z AUTO 00000KT 10SM CLR M09/M16 A3040 RMK AO1 T10911162
Loading
Personal Weather Stations






























Interactive Weather Map New forecast layout! Learn more

10-Day Weather Forecast

Advertisements
Track Severe Weather on mobile